Time;durP1;ratioP1;P1;durP2;ratioP2;P2;SDS_P1;SDS_P2;PMS_P1;PMS_P2;Temp;Humidity;BMP_temperature;BMP_pressure;BME280_temperature;BME280_humidity;BME280_pressure;Samples;Min_cycle;Max_cycle;Signal;HPM_P1;HPM_P2
2021/01/31 00:00:38;;;;;;;13.23;7.07;;;1.70;96.00;;;;;;4975718;28;20027;-83
2021/01/31 00:03:10;;;;;;;14.38;6.40;;;1.70;95.90;;;;;;4975559;28;20033;-83
2021/01/31 00:05:40;;;;;;;15.48;6.60;;;1.70;96.00;;;;;;4975496;28;20195;-83
2021/01/31 00:08:11;;;;;;;14.57;6.13;;;1.70;96.00;;;;;;4975409;28;20027;-83
2021/01/31 00:10:40;;;;;;;15.18;7.15;;;1.70;96.00;;;;;;4975296;28;20058;-83
2021/01/31 00:13:08;;;;;;;13.43;6.07;;;1.70;96.10;;;;;;4975671;28;20035;-83
2021/01/31 00:15:37;;;;;;;12.65;5.75;;;1.80;96.10;;;;;;4975750;28;20125;-83
2021/01/31 00:18:03;;;;;;;12.73;5.47;;;1.60;95.80;;;;;;4975060;28;20053;-83
2021/01/31 00:20:34;;;;;;;13.85;6.10;;;1.60;95.90;;;;;;4974536;28;20050;-83
2021/01/31 00:23:00;;;;;;;13.70;5.97;;;1.70;95.90;;;;;;4974864;28;20487;-82
2021/01/31 00:25:26;;;;;;;11.60;5.63;;;1.60;95.90;;;;;;4975808;28;20033;-82
2021/01/31 00:27:53;;;;;;;13.20;6.28;;;1.60;96.00;;;;;;4974432;28;20083;-82
2021/01/31 00:30:23;;;;;;;11.10;4.68;;;1.60;96.00;;;;;;4975152;28;20022;-82
2021/01/31 00:32:49;;;;;;;12.13;5.10;;;1.60;96.00;;;;;;4973833;28;20023;-82
2021/01/31 00:35:19;;;;;;;11.70;5.43;;;1.60;96.00;;;;;;4975869;28;20364;-82
2021/01/31 00:37:44;;;;;;;13.68;6.15;;;1.60;96.00;;;;;;4974751;28;20023;-82
2021/01/31 00:40:11;;;;;;;14.27;5.53;;;1.60;95.90;;;;;;4974150;28;20027;-82
2021/01/31 00:42:37;;;;;;;13.15;5.97;;;1.50;95.90;;;;;;4974957;28;20390;-82
2021/01/31 00:45:05;;;;;;;12.38;5.55;;;1.50;95.90;;;;;;4974793;28;21115;-82
2021/01/31 00:47:31;;;;;;;11.90;5.20;;;1.50;96.00;;;;;;4979975;28;20021;-82
2021/01/31 00:49:57;;;;;;;12.82;6.05;;;1.60;96.00;;;;;;4980445;28;20035;-81
2021/01/31 00:52:22;;;;;;;13.82;5.90;;;1.50;96.00;;;;;;4974480;28;20034;-82
2021/01/31 00:54:49;;;;;;;12.57;5.30;;;1.50;95.90;;;;;;4990451;28;20046;-82
2021/01/31 00:57:14;;;;;;;10.88;4.90;;;1.50;95.90;;;;;;4973683;28;20162;-82
2021/01/31 00:59:40;;;;;;;12.82;5.45;;;1.50;96.00;;;;;;4973451;28;20110;-82
2021/01/31 01:02:09;;;;;;;13.57;5.60;;;1.50;96.00;;;;;;4974411;28;20823;-82
2021/01/31 01:04:35;;;;;;;11.63;4.80;;;1.50;96.00;;;;;;4973507;28;20082;-81
2021/01/31 01:07:00;;;;;;;11.68;5.35;;;1.50;96.00;;;;;;4973843;28;20019;-81
2021/01/31 01:09:26;;;;;;;11.63;4.85;;;1.50;96.00;;;;;;4974544;28;20483;-81
2021/01/31 01:11:51;;;;;;;12.02;5.20;;;1.50;96.00;;;;;;4973449;28;20039;-82
2021/01/31 01:14:18;;;;;;;13.45;5.65;;;1.50;96.00;;;;;;4989823;28;20023;-81
2021/01/31 01:16:43;;;;;;;13.35;4.70;;;1.50;96.00;;;;;;4973204;28;20075;-81
2021/01/31 01:19:09;;;;;;;13.73;5.82;;;1.50;96.00;;;;;;4974315;28;20045;-82
2021/01/31 01:21:34;;;;;;;13.20;5.32;;;1.50;95.90;;;;;;4974423;28;20538;-81
2021/01/31 01:24:01;;;;;;;13.90;5.70;;;1.50;96.00;;;;;;4973962;28;20038;-82
2021/01/31 01:26:29;;;;;;;13.00;5.30;;;1.50;96.00;;;;;;4973450;28;20019;-82
2021/01/31 01:28:56;;;;;;;13.93;5.85;;;1.50;96.00;;;;;;4970177;28;20519;-81
2021/01/31 01:31:21;;;;;;;12.48;4.72;;;1.60;96.10;;;;;;4974596;28;20379;-82
2021/01/31 01:33:47;;;;;;;14.05;5.50;;;1.50;96.00;;;;;;4973231;28;20038;-82
2021/01/31 01:36:13;;;;;;;12.98;5.35;;;1.50;95.90;;;;;;4973971;28;20015;-82
2021/01/31 01:38:42;;;;;;;11.32;4.57;;;1.60;95.90;;;;;;4973721;28;20066;-82
2021/01/31 01:41:08;;;;;;;12.95;6.10;;;1.60;96.00;;;;;;4974051;28;20023;-82
2021/01/31 01:43:33;;;;;;;12.05;5.13;;;1.50;96.00;;;;;;4972937;28;20495;-82
2021/01/31 01:46:21;;;;;;;11.80;5.18;;;1.50;95.90;;;;;;4975039;28;20490;-82
2021/01/31 01:48:54;;;;;;;12.57;5.18;;;1.50;96.00;;;;;;4974075;28;20034;-82
2021/01/31 01:51:29;;;;;;;15.23;6.13;;;1.50;96.00;;;;;;4971068;28;20058;-82
2021/01/31 01:53:56;;;;;;;12.75;5.88;;;1.50;96.00;;;;;;4973174;28;20031;-82
2021/01/31 01:56:32;;;;;;;12.77;5.45;;;1.40;95.80;;;;;;4973873;28;20380;-82
2021/01/31 01:58:58;;;;;;;12.25;4.95;;;1.40;95.90;;;;;;4971744;28;20131;-82
2021/01/31 02:01:24;;;;;;;12.75;5.13;;;1.40;96.00;;;;;;4989822;28;20389;-82
2021/01/31 02:03:56;;;;;;;11.93;5.45;;;1.40;96.00;;;;;;4973492;28;20034;-82
2021/01/31 02:06:25;;;;;;;12.85;5.88;;;1.40;96.00;;;;;;4972131;28;20023;-83
2021/01/31 02:08:54;;;;;;;13.60;4.50;;;1.40;96.00;;;;;;4972355;28;20027;-82
2021/01/31 02:11:21;;;;;;;13.75;5.55;;;1.40;95.90;;;;;;4973863;28;20015;-82
2021/01/31 02:13:52;;;;;;;13.82;5.43;;;1.40;96.00;;;;;;4972111;28;20054;-82
2021/01/31 02:16:43;;;;;;;15.68;5.60;;;1.40;96.00;;;;;;4973550;28;20019;-82
2021/01/31 02:19:33;;;;;;;14.82;5.45;;;1.50;96.10;;;;;;4973314;28;20031;-83
2021/01/31 02:22:29;;;;;;;12.88;5.40;;;1.50;96.00;;;;;;4987665;28;20398;-82
2021/01/31 02:25:32;;;;;;;15.30;5.60;;;1.40;95.80;;;;;;4968842;28;20035;-83
2021/01/31 02:28:18;;;;;;;11.77;4.95;;;1.40;95.90;;;;;;4971226;28;20058;-83
2021/01/31 02:31:03;;;;;;;14.80;5.97;;;1.40;96.10;;;;;;4970257;28;20029;-82
2021/01/31 02:33:56;;;;;;;16.02;5.40;;;1.40;96.00;;;;;;4968576;28;20023;-83
2021/01/31 02:36:34;;;;;;;12.70;4.85;;;1.40;96.00;;;;;;4971322;28;20035;-83
2021/01/31 02:39:07;;;;;;;11.85;4.97;;;1.40;96.10;;;;;;4972584;28;20058;-83
2021/01/31 02:41:45;;;;;;;15.15;5.05;;;1.50;96.10;;;;;;4970964;28;20018;-83
2021/01/31 02:44:15;;;;;;;14.20;5.03;;;1.50;96.10;;;;;;4971886;28;20019;-83
2021/01/31 02:46:46;;;;;;;14.40;6.00;;;1.50;96.10;;;;;;4972110;28;20026;-84
2021/01/31 02:49:19;;;;;;;13.05;5.55;;;1.50;96.10;;;;;;4970269;28;20022;-84
2021/01/31 02:52:03;;;;;;;13.18;5.60;;;1.50;96.00;;;;;;4973220;28;20046;-84
2021/01/31 02:54:42;;;;;;;13.75;5.50;;;1.50;96.00;;;;;;4970355;28;20471;-84
2021/01/31 02:57:27;;;;;;;12.07;5.03;;;1.50;96.00;;;;;;4971341;28;20110;-84
2021/01/31 02:59:53;;;;;;;;;;;1.50;96.10;;;;;;4971476;28;20058;-84
2021/01/31 03:02:26;;;;;;;13.95;5.90;;;1.50;96.00;;;;;;4971344;28;19964;-84
2021/01/31 03:04:58;;;;;;;12.88;5.57;;;1.50;96.10;;;;;;4985822;28;20022;-84
2021/01/31 03:07:29;;;;;;;12.52;5.53;;;1.50;96.00;;;;;;4973077;28;20019;-84
2021/01/31 03:10:07;;;;;;;14.90;6.50;;;1.50;96.00;;;;;;4971958;28;20023;-84
2021/01/31 03:12:48;;;;;;;12.88;6.20;;;1.50;96.00;;;;;;4970773;28;20105;-84
2021/01/31 03:15:19;;;;;;;13.30;6.32;;;1.50;96.00;;;;;;4972620;28;20494;-83
2021/01/31 03:17:59;;;;;;;16.13;5.82;;;1.50;96.00;;;;;;4972052;28;20038;-83
2021/01/31 03:20:32;;;;;;;11.65;5.03;;;1.50;96.10;;;;;;4972124;28;20034;-82
2021/01/31 03:23:17;;;;;;;12.90;5.63;;;1.50;96.10;;;;;;4968388;28;20047;-82
2021/01/31 03:26:01;;;;;;;14.32;5.60;;;1.50;96.00;;;;;;4972105;28;20026;-82
2021/01/31 03:28:26;;;;;;;13.30;5.22;;;1.50;96.00;;;;;;4972551;28;20022;-81
2021/01/31 03:30:55;;;;;;;12.82;5.78;;;1.50;96.00;;;;;;4988674;28;20035;-81
2021/01/31 03:33:26;;;;;;;11.70;5.00;;;1.50;96.00;;;;;;4980424;28;20023;-82
2021/01/31 03:35:54;;;;;;;14.88;5.72;;;1.50;96.10;;;;;;4976353;28;20023;-81
2021/01/31 03:38:29;;;;;;;14.15;5.70;;;1.50;96.00;;;;;;4972205;28;20031;-81
2021/01/31 03:41:02;;;;;;;11.88;4.88;;;1.50;96.10;;;;;;4971929;28;20022;-81
2021/01/31 03:43:28;;;;;;;12.60;5.65;;;1.70;96.10;;;;;;4970970;28;20069;-81
2021/01/31 03:46:31;;;;;;;13.70;5.63;;;1.50;96.00;;;;;;4971259;28;20449;-81
2021/01/31 03:48:59;;;;;;;11.85;5.07;;;1.50;96.00;;;;;;4975618;28;20088;-82
2021/01/31 03:51:27;;;;;;;12.30;4.55;;;1.50;95.90;;;;;;4971688;28;20046;-82
2021/01/31 03:53:53;;;;;;;13.65;5.30;;;1.40;95.90;;;;;;4971262;28;20038;-82
2021/01/31 03:56:30;;;;;;;11.07;4.28;;;1.40;96.00;;;;;;4971862;28;20019;-81
2021/01/31 03:58:58;;;;;;;13.20;5.57;;;1.50;96.10;;;;;;4971816;28;20042;-81
2021/01/31 04:01:26;;;;;;;13.18;5.78;;;1.50;96.10;;;;;;4972744;28;20037;-82
2021/01/31 04:04:15;;;;;;;10.65;4.65;;;1.50;96.00;;;;;;4988157;28;20027;-82
2021/01/31 04:06:42;;;;;;;12.63;4.85;;;1.50;96.00;;;;;;4971642;28;20019;-82
2021/01/31 04:09:11;;;;;;;13.00;4.85;;;1.40;95.90;;;;;;4971863;28;20031;-82
2021/01/31 04:11:42;;;;;;;12.52;5.07;;;1.40;95.90;;;;;;4972102;28;20376;-82
2021/01/31 04:14:28;;;;;;;13.85;5.93;;;1.40;96.00;;;;;;4971274;28;20047;-82
2021/01/31 04:16:54;;;;;;;13.15;5.72;;;1.40;96.00;;;;;;4986154;28;20123;-82
2021/01/31 04:19:20;;;;;;;11.85;5.38;;;1.60;96.10;;;;;;4972277;28;20542;-82
2021/01/31 04:21:46;;;;;;;13.98;5.38;;;1.50;96.10;;;;;;4971587;28;20066;-82
2021/01/31 04:24:12;;;;;;;10.93;4.65;;;1.70;96.20;;;;;;4972646;28;20050;-82
2021/01/31 04:26:38;;;;;;;12.15;5.00;;;1.50;96.00;;;;;;4968659;28;20475;-82
2021/01/31 04:29:05;;;;;;;11.55;4.88;;;1.70;96.10;;;;;;4971642;28;20058;-82
2021/01/31 04:31:31;;;;;;;12.13;5.70;;;1.50;96.10;;;;;;4974620;28;20423;-82
2021/01/31 04:33:57;;;;;;;13.63;5.18;;;1.50;96.00;;;;;;4974149;28;20088;-82
2021/01/31 04:36:24;;;;;;;12.57;4.78;;;1.60;96.30;;;;;;4975393;28;20780;-82
2021/01/31 04:38:50;;;;;;;12.20;5.85;;;1.50;96.00;;;;;;4975007;28;20180;-82
2021/01/31 04:41:15;;;;;;;15.00;6.32;;;1.50;96.00;;;;;;4974280;28;20019;-82
2021/01/31 04:43:45;;;;;;;12.18;4.63;;;1.50;96.00;;;;;;4974203;28;20121;-82
2021/01/31 04:46:20;;;;;;;13.55;5.82;;;1.50;96.00;;;;;;4971267;28;20030;-83
2021/01/31 04:49:12;;;;;;;12.30;6.13;;;1.50;96.00;;;;;;4974675;28;20032;-82
2021/01/31 04:52:12;;;;;;;12.35;5.38;;;1.50;96.00;;;;;;4973619;28;20026;-83
2021/01/31 04:54:49;;;;;;;13.27;5.43;;;1.50;96.00;;;;;;4974375;28;20047;-83
2021/01/31 04:57:28;;;;;;;13.65;5.32;;;1.50;96.10;;;;;;4974548;28;20379;-81
2021/01/31 04:59:54;;;;;;;13.75;6.00;;;1.50;96.00;;;;;;4975193;28;20034;-84
2021/01/31 05:02:30;;;;;;;12.32;5.40;;;1.50;96.00;;;;;;4975249;28;20044;-82
2021/01/31 05:04:59;;;;;;;13.20;5.50;;;1.50;96.00;;;;;;4990005;28;20026;-85
2021/01/31 05:07:33;;;;;;;13.00;5.38;;;1.50;96.10;;;;;;4974743;28;20022;-83
2021/01/31 05:09:58;;;;;;;15.52;6.53;;;1.50;96.00;;;;;;4990630;28;20375;-83
2021/01/31 05:12:46;;;;;;;12.00;5.05;;;1.50;96.00;;;;;;4974420;28;20045;-83
2021/01/31 05:15:20;;;;;;;12.48;5.07;;;1.50;96.10;;;;;;4971103;28;20360;-83
2021/01/31 05:17:49;;;;;;;12.55;5.50;;;1.50;96.00;;;;;;4974662;28;20027;-83
2021/01/31 05:20:20;;;;;;;12.43;5.60;;;1.50;96.10;;;;;;4974339;28;20077;-83
2021/01/31 05:22:50;;;;;;;11.93;5.22;;;1.50;96.00;;;;;;4971230;28;20039;-83
2021/01/31 05:25:20;;;;;;;13.90;5.80;;;1.50;96.10;;;;;;4974237;28;20043;-83
2021/01/31 05:27:46;;;;;;;14.23;6.05;;;1.50;96.10;;;;;;4973814;28;20106;-84
2021/01/31 05:30:14;;;;;;;13.10;5.93;;;1.60;96.10;;;;;;4971192;28;20423;-84
2021/01/31 05:33:04;;;;;;;14.80;6.22;;;1.50;96.10;;;;;;4971460;28;20054;-84
2021/01/31 05:35:33;;;;;;;12.02;5.20;;;1.60;96.10;;;;;;4974228;28;20038;-84
2021/01/31 05:37:59;;;;;;;13.88;6.07;;;1.60;96.10;;;;;;4971770;28;20090;-84
2021/01/31 05:40:39;;;;;;;16.90;6.75;;;1.60;96.10;;;;;;4974088;28;20034;-84
2021/01/31 05:43:07;;;;;;;12.45;5.30;;;1.60;96.10;;;;;;4973643;28;20023;-84
2021/01/31 05:45:44;;;;;;;14.48;6.05;;;1.60;96.00;;;;;;4972787;28;20022;-84
2021/01/31 05:48:36;;;;;;;15.45;6.60;;;1.50;95.90;;;;;;4973896;28;20031;-84
2021/01/31 05:51:18;;;;;;;14.38;6.57;;;1.50;96.00;;;;;;4987965;28;20098;-84
2021/01/31 05:53:44;;;;;;;16.23;6.00;;;1.50;95.90;;;;;;4971442;28;20031;-84
2021/01/31 05:56:29;;;;;;;16.27;7.28;;;1.60;96.10;;;;;;4972863;28;20023;-84
2021/01/31 05:58:58;;;;;;;16.58;6.75;;;1.50;96.00;;;;;;4970910;28;20491;-84
2021/01/31 06:01:25;;;;;;;15.23;6.75;;;1.50;96.10;;;;;;4972513;28;20383;-83
2021/01/31 06:03:51;;;;;;;13.27;6.38;;;1.50;96.40;;;;;;4973759;28;20514;-83
2021/01/31 06:06:20;;;;;;;13.35;5.63;;;1.50;96.20;;;;;;4973174;28;20023;-83
2021/01/31 06:08:49;;;;;;;13.98;6.07;;;1.50;96.10;;;;;;4973921;28;20416;-83
2021/01/31 06:11:23;;;;;;;16.30;6.65;;;1.60;96.10;;;;;;4970283;28;20025;-84
2021/01/31 06:14:09;;;;;;;15.77;6.80;;;1.50;96.10;;;;;;4974461;28;20045;-83
2021/01/31 06:16:36;;;;;;;14.13;6.60;;;1.60;96.10;;;;;;4971593;28;20254;-83
2021/01/31 06:19:25;;;;;;;17.73;7.10;;;1.50;96.00;;;;;;4978140;28;20042;-82
2021/01/31 06:21:50;;;;;;;12.95;5.97;;;1.60;96.10;;;;;;4975579;28;20046;-83
2021/01/31 06:24:28;;;;;;;15.60;6.22;;;1.60;96.10;;;;;;4972601;28;20074;-83
2021/01/31 06:26:56;;;;;;;15.73;6.90;;;1.60;96.10;;;;;;4973443;28;20035;-83
2021/01/31 06:29:49;;;;;;;14.35;6.45;;;1.60;96.10;;;;;;4970298;28;20106;-86
2021/01/31 06:32:25;;;;;;;15.93;6.47;;;1.50;96.20;;;;;;4970713;28;20037;-86
2021/01/31 06:35:07;;;;;;;17.52;6.93;;;1.60;96.10;;;;;;4973819;28;20034;-86
2021/01/31 06:37:48;;;;;;;15.13;6.88;;;1.80;96.20;;;;;;4970547;28;20023;-86
2021/01/31 06:40:32;;;;;;;18.75;7.28;;;1.60;96.30;;;;;;4969285;28;20061;-86
2021/01/31 06:43:04;;;;;;;18.17;7.68;;;1.50;96.20;;;;;;4972985;28;20046;-85
2021/01/31 06:45:35;;;;;;;16.23;7.55;;;1.60;96.20;;;;;;4969069;28;20391;-85
2021/01/31 06:48:34;;;;;;;14.77;7.18;;;1.70;96.30;;;;;;4972737;28;20479;-86
2021/01/31 06:51:48;;;;;;;14.68;6.40;;;1.70;96.20;;;;;;4971780;28;20085;-86
2021/01/31 06:55:07;;;;;;;14.93;6.57;;;1.70;96.10;;;;;;4970112;28;20033;-86
2021/01/31 06:58:22;;;;;;;15.95;7.28;;;1.70;96.10;;;;;;4970662;28;20031;-85
2021/01/31 07:01:40;;;;;;;16.67;7.15;;;1.60;96.10;;;;;;4969081;28;20555;-84
2021/01/31 07:04:54;;;;;;;18.75;7.95;;;1.70;96.10;;;;;;4971950;28;20046;-84
2021/01/31 07:08:09;;;;;;;17.65;7.20;;;1.50;96.00;;;;;;4971614;28;20023;-84
2021/01/31 07:10:53;;;;;;;18.50;8.20;;;1.60;96.20;;;;;;4969763;28;20058;-84
2021/01/31 07:13:40;;;;;;;14.90;5.67;;;1.80;96.40;;;;;;4970515;28;20089;-84
2021/01/31 07:16:18;;;;;;;17.42;8.02;;;1.70;96.30;;;;;;4970769;28;20114;-84
2021/01/31 07:19:07;;;;;;;18.08;7.82;;;1.70;96.20;;;;;;4973012;28;20499;-84
2021/01/31 07:21:43;;;;;;;17.60;7.38;;;1.70;96.20;;;;;;4970594;28;20027;-84
2021/01/31 07:24:15;;;;;;;17.98;7.68;;;1.70;96.20;;;;;;4969241;28;20483;-84
2021/01/31 07:27:16;;;;;;;19.15;8.57;;;1.80;96.20;;;;;;4971353;28;20031;-87
2021/01/31 07:30:32;;;;;;;;;;;;;;;;;;;;;
2021/01/31 07:36:25;;;;;;;19.33;7.85;;;1.90;96.30;;;;;;4963993;28;20093;-86
2021/01/31 07:39:53;;;;;;;19.50;8.85;;;2.00;96.30;;;;;;4983266;28;20073;-90
2021/01/31 07:42:56;;;;;;;20.73;7.88;;;2.00;96.30;;;;;;4976349;28;20027;-91
2021/01/31 07:45:41;;;;;;;21.83;7.90;;;2.00;96.20;;;;;;4957752;28;20430;-91
2021/01/31 07:51:38;;;;;;;16.08;7.22;;;2.20;96.40;;;;;;5296486;23;20515;-91
2021/01/31 08:01:35;;;;;;;17.40;8.27;;;2.30;96.20;;;;;;4980844;23;20057;-88
2021/01/31 10:12:23;;;;;;;16.60;7.10;;;5.10;95.10;;;;;;3092869;27;20068;-87
2021/01/31 10:14:54;;;;;;;16.48;7.55;;;5.10;95.60;;;;;;4883468;29;20048;-87
2021/01/31 10:17:31;;;;;;;19.25;8.40;;;5.30;95.60;;;;;;4893957;29;20115;-88
2021/01/31 10:20:28;;;;;;;16.90;8.70;;;5.40;95.50;;;;;;4867663;29;20041;-88
2021/01/31 10:23:22;;;;;;;13.63;6.35;;;5.30;95.20;;;;;;4897246;29;20039;-89
2021/01/31 10:26:15;;;;;;;13.48;6.10;;;5.40;95.20;;;;;;4877408;29;20033;-88
2021/01/31 10:28:55;;;;;;;15.25;6.20;;;5.40;95.60;;;;;;4885201;29;20115;-89
2021/01/31 10:31:48;;;;;;;19.25;9.00;;;5.70;95.90;;;;;;4881793;29;20427;-88
2021/01/31 10:35:04;;;;;;;14.63;6.85;;;5.90;95.50;;;;;;4881535;29;20029;-89
2021/01/31 10:41:30;;;;;;;13.40;6.88;;;6.20;95.40;;;;;;4830014;29;20052;-88
2021/01/31 10:44:20;;;;;;;13.20;6.53;;;6.60;96.00;;;;;;4809437;29;20026;-89
2021/01/31 10:50:28;;;;;;;13.73;5.95;;;7.00;95.70;;;;;;4882603;29;20024;-88
2021/01/31 10:53:23;;;;;;;12.95;5.95;;;7.40;95.90;;;;;;4885662;29;20037;-88
2021/01/31 10:58:57;;;;;;;;;;;;;;;;;;;;;
2021/01/31 11:01:26;;;;;;;12.82;5.93;;;7.30;95.10;;;;;;4882516;29;20034;-90
2021/01/31 11:04:04;;;;;;;11.68;5.53;;;7.60;95.30;;;;;;4897430;29;20051;-89
2021/01/31 11:06:50;;;;;;;13.00;5.75;;;7.60;94.80;;;;;;4881541;29;20051;-88
2021/01/31 11:09:21;;;;;;;11.93;5.50;;;7.70;95.20;;;;;;4880200;29;20111;-88
2021/01/31 11:11:46;;;;;;;11.82;5.28;;;7.60;94.70;;;;;;4878936;29;20052;-92
2021/01/31 11:14:14;;;;;;;11.43;5.38;;;7.70;95.00;;;;;;4897323;29;20033;-90
2021/01/31 11:16:40;;;;;;;12.48;5.43;;;7.60;94.90;;;;;;4898560;29;20104;-90
2021/01/31 11:19:06;;;;;;;12.50;5.63;;;7.60;94.90;;;;;;4893873;29;20469;-91
2021/01/31 11:21:34;;;;;;;12.40;5.50;;;7.60;94.80;;;;;;4882585;29;20378;-91
2021/01/31 11:24:00;;;;;;;11.85;5.50;;;7.40;94.60;;;;;;4864299;29;20041;-90
2021/01/31 11:26:27;;;;;;;14.75;6.82;;;7.20;94.60;;;;;;4883583;29;20060;-89
2021/01/31 11:28:55;;;;;;;14.07;7.45;;;7.50;95.60;;;;;;4897803;29;20028;-90
2021/01/31 11:31:23;;;;;;;13.90;6.00;;;7.60;95.40;;;;;;4880594;29;20025;-90
2021/01/31 11:33:51;;;;;;;12.45;5.40;;;7.60;95.00;;;;;;4865858;29;20025;-90
2021/01/31 11:36:17;;;;;;;12.60;5.60;;;7.80;95.50;;;;;;4893953;29;20458;-89
2021/01/31 11:38:43;;;;;;;13.18;5.45;;;8.00;95.80;;;;;;4880505;29;20047;-90
2021/01/31 11:41:09;;;;;;;11.45;5.43;;;7.90;94.90;;;;;;4892885;29;20191;-90
2021/01/31 11:43:34;;;;;;;11.75;5.22;;;7.80;94.60;;;;;;4885678;29;20540;-89
2021/01/31 11:46:00;;;;;;;11.75;5.30;;;7.50;95.10;;;;;;4905403;29;20466;-90
2021/01/31 11:48:26;;;;;;;10.70;5.30;;;7.80;95.20;;;;;;4891750;29;20080;-91
2021/01/31 11:50:52;;;;;;;14.43;5.80;;;7.80;95.00;;;;;;4882912;29;20032;-90
2021/01/31 11:53:17;;;;;;;10.88;5.15;;;7.60;95.30;;;;;;4871727;29;20032;-89
2021/01/31 11:55:43;;;;;;;10.85;5.28;;;8.00;95.70;;;;;;4894937;29;20025;-90
2021/01/31 11:58:11;;;;;;;12.40;5.63;;;8.00;95.30;;;;;;4884696;29;20047;-90
2021/01/31 12:00:37;;;;;;;12.23;5.38;;;8.50;96.60;;;;;;4883824;29;20029;-89
2021/01/31 12:03:13;;;;;;;11.85;5.70;;;8.90;96.00;;;;;;4889689;29;20040;-88
2021/01/31 12:05:38;;;;;;;11.98;5.82;;;9.10;95.80;;;;;;4884330;29;20029;-88
2021/01/31 12:08:10;;;;;;;10.63;4.70;;;9.70;96.90;;;;;;4869587;29;20032;-88
2021/01/31 15:55:19;;;;;;;;;;;;;;;;;;;;;
2021/01/31 15:58:23;;;;;;;11.27;4.70;;;4.50;95.30;;;;;;4931922;29;20111;-87
2021/01/31 16:04:13;;;;;;;12.73;5.80;;;4.10;95.00;;;;;;4927909;29;20095;-85
2021/01/31 16:35:54;;;;;;;14.35;5.57;;;2.60;95.00;;;;;;4951606;23;20102;-81
2021/01/31 16:38:21;;;;;;;12.70;5.55;;;2.70;95.10;;;;;;4899382;29;20059;-79
2021/01/31 16:41:14;;;;;;;14.80;6.80;;;2.50;95.20;;;;;;4900401;29;20028;-84
2021/01/31 16:47:42;;;;;;;12.73;5.82;;;2.30;95.20;;;;;;4994664;23;20047;-92
2021/01/31 16:50:11;;;;;;;15.18;6.55;;;2.20;95.30;;;;;;4911182;29;20115;-93
2021/01/31 16:52:37;;;;;;;15.30;6.55;;;2.10;95.30;;;;;;4903453;29;20027;-83
2021/01/31 16:55:05;;;;;;;15.32;6.65;;;2.20;95.40;;;;;;4901671;29;20028;-81
2021/01/31 16:57:31;;;;;;;14.32;5.95;;;2.00;95.30;;;;;;4900463;29;20032;-80
2021/01/31 16:59:57;;;;;;;13.18;6.10;;;1.90;95.40;;;;;;4897045;29;20044;-80
2021/01/31 17:02:23;;;;;;;13.63;5.80;;;1.90;95.60;;;;;;4895574;29;20056;-80
2021/01/31 17:04:49;;;;;;;13.38;6.10;;;1.90;95.70;;;;;;4917581;29;20071;-81
2021/01/31 17:07:15;;;;;;;16.63;7.18;;;1.90;95.60;;;;;;4905143;29;20048;-81
2021/01/31 17:09:44;;;;;;;16.40;8.63;;;1.90;95.60;;;;;;4887955;29;20029;-81
2021/01/31 17:12:10;;;;;;;13.68;6.70;;;1.90;95.70;;;;;;4899417;29;20474;-81
2021/01/31 17:14:38;;;;;;;16.42;7.30;;;1.90;95.70;;;;;;4899930;29;20503;-81
2021/01/31 17:17:09;;;;;;;15.85;7.45;;;1.90;95.70;;;;;;4901586;29;20024;-81
2021/01/31 17:19:36;;;;;;;16.10;7.95;;;1.90;96.00;;;;;;4901493;29;20044;-83
2021/01/31 17:22:01;;;;;;;17.20;8.93;;;2.10;96.00;;;;;;4889839;29;20028;-84
2021/01/31 17:24:27;;;;;;;20.40;11.18;;;2.00;95.90;;;;;;4889971;29;20055;-84
2021/01/31 17:26:55;;;;;;;21.27;11.98;;;1.90;95.70;;;;;;4887702;29;20029;-84
2021/01/31 17:29:22;;;;;;;16.77;9.85;;;1.90;95.60;;;;;;4896726;29;20579;-84
2021/01/31 17:31:53;;;;;;;17.40;8.45;;;1.80;95.50;;;;;;4911449;29;20048;-84
2021/01/31 17:34:19;;;;;;;18.52;8.68;;;1.70;95.50;;;;;;4898384;29;20031;-85
2021/01/31 17:36:44;;;;;;;18.65;9.55;;;1.60;95.70;;;;;;4916740;29;20114;-84
2021/01/31 17:39:10;;;;;;;20.20;10.30;;;1.60;95.40;;;;;;4880405;29;20493;-84
2021/01/31 17:41:36;;;;;;;18.60;9.23;;;1.50;95.50;;;;;;4886098;29;20056;-84
2021/01/31 17:44:01;;;;;;;19.83;9.23;;;1.40;95.40;;;;;;4916902;29;20507;-84
2021/01/31 17:46:27;;;;;;;19.63;9.23;;;1.40;95.50;;;;;;4887830;29;20032;-85
2021/01/31 17:48:54;;;;;;;15.98;8.05;;;1.40;95.50;;;;;;4884440;29;20052;-83
2021/01/31 17:51:22;;;;;;;17.55;8.02;;;1.30;95.50;;;;;;4896091;29;20033;-83
2021/01/31 17:53:48;;;;;;;19.25;10.55;;;1.20;95.50;;;;;;4916624;29;20021;-83
2021/01/31 17:56:13;;;;;;;26.83;13.82;;;1.30;95.50;;;;;;4883952;29;20029;-83
2021/01/31 17:58:40;;;;;;;21.77;10.98;;;1.20;95.60;;;;;;4885536;29;20036;-83
2021/01/31 18:01:06;;;;;;;19.75;10.20;;;1.20;95.70;;;;;;4900747;29;20028;-83
2021/01/31 18:03:33;;;;;;;16.52;8.57;;;1.20;95.70;;;;;;4886218;29;20079;-84
2021/01/31 18:05:58;;;;;;;20.02;9.05;;;1.20;95.80;;;;;;4911870;29;20032;-83
2021/01/31 18:08:24;;;;;;;19.50;8.98;;;1.20;95.90;;;;;;4916355;29;20461;-83
2021/01/31 18:10:50;;;;;;;17.45;8.02;;;1.40;95.90;;;;;;4887683;29;20084;-83
2021/01/31 18:13:15;;;;;;;16.35;7.22;;;1.30;95.90;;;;;;4883998;29;20529;-83
2021/01/31 18:15:44;;;;;;;18.48;7.55;;;1.50;95.90;;;;;;4914729;29;20119;-84
2021/01/31 18:18:10;;;;;;;18.77;9.00;;;1.30;95.90;;;;;;4886343;29;20036;-84
2021/01/31 18:20:35;;;;;;;19.23;9.38;;;1.40;95.90;;;;;;4912246;29;20033;-84
2021/01/31 18:23:03;;;;;;;18.77;9.43;;;1.40;96.00;;;;;;4915779;29;20032;-83
2021/01/31 18:25:32;;;;;;;18.45;8.52;;;1.40;96.00;;;;;;4883427;29;20036;-84
2021/01/31 18:28:00;;;;;;;19.08;9.40;;;1.50;96.00;;;;;;4909880;29;20036;-83
2021/01/31 18:30:26;;;;;;;15.38;7.72;;;1.70;96.00;;;;;;4912951;29;20358;-84
2021/01/31 18:32:52;;;;;;;16.77;7.45;;;1.50;95.80;;;;;;4913955;29;20039;-84
2021/01/31 18:35:18;;;;;;;15.05;5.82;;;1.40;95.90;;;;;;4910211;29;20111;-83
2021/01/31 18:37:44;;;;;;;14.52;6.32;;;1.40;96.00;;;;;;4899390;29;20035;-83
2021/01/31 18:40:11;;;;;;;16.50;7.13;;;1.40;96.00;;;;;;4891761;29;20036;-84
2021/01/31 18:42:38;;;;;;;14.20;6.35;;;1.50;96.10;;;;;;4896744;29;20017;-83
2021/01/31 18:45:04;;;;;;;15.77;6.45;;;1.40;96.00;;;;;;4914241;29;20485;-83
2021/01/31 18:47:30;;;;;;;16.25;6.97;;;1.50;96.10;;;;;;4916978;29;20119;-83
2021/01/31 18:49:56;;;;;;;17.42;7.03;;;1.50;96.10;;;;;;4916396;29;20107;-83
2021/01/31 18:52:21;;;;;;;15.43;7.03;;;1.50;96.00;;;;;;4892122;29;20393;-83
2021/01/31 18:54:47;;;;;;;18.33;7.30;;;1.50;96.00;;;;;;4883590;29;20399;-82
2021/01/31 18:57:15;;;;;;;14.38;6.10;;;1.60;96.10;;;;;;4910765;29;20036;-83
2021/01/31 18:59:43;;;;;;;13.57;6.72;;;1.60;96.00;;;;;;4912703;29;20040;-83
2021/01/31 19:02:09;;;;;;;16.95;7.18;;;1.50;95.90;;;;;;4916547;29;20107;-82
2021/01/31 19:04:34;;;;;;;19.90;7.82;;;1.60;96.00;;;;;;4894347;29;20115;-83
2021/01/31 19:07:00;;;;;;;26.80;12.68;;;1.60;95.90;;;;;;4883837;29;20385;-83
2021/01/31 19:09:25;;;;;;;21.27;8.98;;;1.40;95.70;;;;;;4909831;29;20028;-83
2021/01/31 19:11:51;;;;;;;25.08;10.38;;;1.40;95.70;;;;;;4885527;29;20039;-83
2021/01/31 19:14:18;;;;;;;17.77;7.63;;;1.40;95.80;;;;;;4888462;29;20040;-83
2021/01/31 19:16:48;;;;;;;16.15;6.95;;;1.40;96.00;;;;;;4915407;29;20039;-84
2021/01/31 19:19:14;;;;;;;16.70;6.60;;;1.40;96.10;;;;;;4898857;29;20029;-83
2021/01/31 19:21:43;;;;;;;18.58;7.43;;;1.50;96.20;;;;;;4909564;29;20115;-83
2021/01/31 19:24:18;;;;;;;17.38;7.05;;;1.50;96.30;;;;;;4868611;29;20031;-83
2021/01/31 19:26:45;;;;;;;18.00;6.78;;;1.60;96.10;;;;;;4886413;29;20035;-83
2021/01/31 19:29:11;;;;;;;19.63;8.60;;;1.40;96.00;;;;;;4912842;29;20099;-83
2021/01/31 19:31:40;;;;;;;18.98;7.82;;;1.50;96.00;;;;;;4888250;29;20025;-83
2021/01/31 19:34:05;;;;;;;19.40;8.50;;;1.60;96.10;;;;;;4877192;29;20378;-83
2021/01/31 19:36:34;;;;;;;17.67;8.63;;;1.80;96.10;;;;;;4914348;29;20027;-84
2021/01/31 19:39:06;;;;;;;15.40;8.23;;;1.50;96.00;;;;;;4912763;29;20409;-83
2021/01/31 19:41:32;;;;;;;16.38;7.72;;;1.50;95.90;;;;;;4896340;29;20024;-83
2021/01/31 19:44:00;;;;;;;15.43;7.28;;;1.60;96.10;;;;;;4913745;29;20126;-82
2021/01/31 19:46:28;;;;;;;16.55;7.78;;;1.70;96.20;;;;;;4906699;29;20056;-84
2021/01/31 19:48:53;;;;;;;17.27;6.75;;;1.60;96.10;;;;;;4913690;29;20441;-82
2021/01/31 19:51:19;;;;;;;18.10;7.50;;;1.60;96.20;;;;;;4904761;29;20025;-82
2021/01/31 19:53:45;;;;;;;14.65;6.57;;;1.60;96.10;;;;;;4887904;29;20385;-79
2021/01/31 19:56:10;;;;;;;15.35;6.13;;;1.60;96.10;;;;;;4903004;29;20401;-79
2021/01/31 19:58:37;;;;;;;17.20;6.97;;;1.60;96.20;;;;;;4887762;29;20028;-80
2021/01/31 20:01:07;;;;;;;17.73;7.53;;;1.60;96.50;;;;;;4904089;29;20124;-80
2021/01/31 20:03:35;;;;;;;17.80;8.15;;;1.70;96.10;;;;;;4908596;29;20020;-81
2021/01/31 20:06:01;;;;;;;15.90;7.82;;;1.80;96.10;;;;;;4892846;29;20092;-81
2021/01/31 20:08:32;;;;;;;15.98;6.35;;;1.70;96.10;;;;;;4911551;29;20457;-83
2021/01/31 20:14:24;;;;;;;17.45;8.77;;;1.70;96.10;;;;;;4849320;29;20065;-82
2021/01/31 20:16:50;;;;;;;18.08;6.78;;;1.70;96.10;;;;;;4898393;29;20043;-83